createdAt,value
2019-05-25T00:00:05.706Z,47.89
2019-05-25T00:01:05.676Z,47.79
2019-05-25T00:02:05.664Z,47.49
2019-05-25T00:03:05.716Z,47.30
2019-05-25T00:04:05.646Z,47.49
2019-05-25T00:05:05.658Z,47.39
2019-05-25T00:06:05.641Z,47.07
2019-05-25T00:07:05.835Z,47.30
2019-05-25T00:08:05.604Z,47.07
2019-05-25T00:09:05.592Z,46.87
2019-05-25T00:10:05.668Z,46.87
2019-05-25T00:11:05.576Z,47.17
2019-05-25T00:12:05.572Z,46.89
2019-05-25T00:13:05.555Z,46.89
2019-05-25T00:14:05.547Z,46.87
2019-05-25T00:15:05.541Z,47.39
2019-05-25T00:16:05.513Z,47.30
2019-05-25T00:17:05.508Z,47.30
2019-05-25T00:18:05.496Z,47.27
2019-05-25T00:19:05.482Z,47.09
2019-05-25T00:20:05.487Z,47.09
2019-05-25T00:21:05.461Z,46.89
2019-05-25T00:22:05.450Z,47.09
2019-05-25T00:23:05.441Z,47.19
2019-05-25T00:24:12.089Z,46.89
2019-05-25T00:25:06.429Z,47.09
2019-05-25T00:26:05.411Z,46.89
2019-05-25T00:27:05.416Z,46.89
2019-05-25T00:28:05.388Z,46.89
2019-05-25T00:29:05.372Z,46.89
2019-05-25T00:30:05.387Z,47.39
2019-05-25T00:31:05.359Z,47.19
2019-05-25T00:32:05.349Z,47.30
2019-05-25T00:33:05.343Z,47.09
2019-05-25T00:34:05.322Z,47.30
2019-05-25T00:35:05.327Z,47.19
2019-05-25T00:36:05.303Z,46.99
2019-05-25T00:37:05.289Z,47.02
2019-05-25T00:38:05.294Z,47.19
2019-05-25T00:39:05.283Z,47.30
2019-05-25T00:40:05.291Z,47.09
2019-05-25T00:41:05.246Z,47.19
2019-05-25T00:42:05.251Z,46.89
2019-05-25T00:43:05.228Z,46.99
2019-05-25T00:44:05.213Z,47.02
2019-05-25T00:45:05.220Z,46.89
2019-05-25T00:46:05.202Z,47.02
2019-05-25T00:47:05.178Z,47.11
2019-05-25T00:48:05.167Z,46.99
2019-05-25T00:49:05.164Z,46.92
2019-05-25T00:50:05.162Z,46.92
2019-05-25T00:51:05.140Z,46.80
2019-05-25T00:52:05.124Z,46.92
2019-05-25T00:53:05.118Z,47.09
2019-05-25T00:54:05.113Z,47.09
2019-05-25T00:55:05.107Z,46.80
2019-05-25T00:56:05.085Z,47.11
2019-05-25T00:57:05.074Z,46.92
2019-05-25T00:58:05.058Z,46.80
2019-05-25T00:59:05.056Z,46.81
2019-05-25T01:00:05.059Z,47.11
2019-05-25T01:01:05.134Z,46.92
2019-05-25T01:02:05.018Z,47.02
2019-05-25T01:03:05.013Z,47.11
2019-05-25T01:04:04.994Z,47.22
2019-05-25T01:05:04.997Z,47.02
2019-05-25T01:06:04.973Z,47.02
2019-05-25T01:07:04.963Z,47.11
2019-05-25T01:08:04.946Z,46.81
2019-05-25T01:09:04.940Z,47.11
2019-05-25T01:10:04.941Z,46.92
2019-05-25T01:11:04.921Z,46.92
2019-05-25T01:12:04.900Z,46.92
2019-05-25T01:13:04.901Z,47.11
2019-05-25T01:14:04.877Z,47.52
2019-05-25T01:15:04.902Z,47.31
2019-05-25T01:16:04.862Z,47.31
2019-05-25T01:17:04.847Z,47.31
2019-05-25T01:18:04.839Z,47.22
2019-05-25T01:19:04.862Z,47.31
2019-05-25T01:20:04.814Z,47.11
2019-05-25T01:21:04.820Z,46.92
2019-05-25T01:22:04.800Z,46.81
2019-05-25T01:23:04.785Z,47.22
2019-05-25T01:24:04.776Z,47.31
2019-05-25T01:25:04.762Z,47.11
2019-05-25T01:26:04.767Z,47.11
2019-05-25T01:27:04.740Z,46.42
2019-05-25T01:28:04.730Z,47.22
2019-05-25T01:29:04.713Z,47.31
2019-05-25T01:30:04.713Z,47.11
2019-05-25T01:31:04.719Z,47.11
2019-05-25T01:32:04.684Z,47.11
2019-05-25T01:33:04.678Z,46.42
2019-05-25T01:34:04.666Z,47.22
2019-05-25T01:35:04.660Z,46.72
2019-05-25T01:36:04.666Z,47.22
2019-05-25T01:37:04.631Z,47.22
2019-05-25T01:38:04.620Z,47.11
2019-05-25T01:39:04.614Z,47.81
2019-05-25T01:40:04.615Z,47.72
2019-05-25T01:41:04.605Z,46.31
2019-05-25T01:42:04.575Z,47.22
2019-05-25T01:43:04.567Z,46.42
2019-05-25T01:44:04.622Z,46.31
2019-05-25T01:45:04.549Z,47.24
2019-05-25T01:46:04.551Z,47.31
2019-05-25T01:47:04.541Z,47.31
2019-05-25T01:48:04.526Z,47.34
2019-05-25T01:49:04.503Z,47.24
2019-05-25T01:50:04.495Z,47.42
2019-05-25T01:51:04.496Z,47.24
2019-05-25T01:52:04.479Z,47.34
2019-05-25T01:53:04.457Z,47.54
2019-05-25T01:54:04.455Z,47.34
2019-05-25T01:55:04.442Z,47.64
2019-05-25T01:56:04.460Z,47.44
2019-05-25T01:57:04.426Z,47.64
2019-05-25T01:58:04.412Z,47.64
2019-05-25T01:59:04.408Z,47.64
2019-05-25T02:00:04.389Z,47.64
2019-05-25T02:01:04.397Z,47.14
2019-05-25T02:02:04.374Z,47.34
2019-05-25T02:03:04.368Z,47.34
2019-05-25T02:04:04.355Z,47.54
2019-05-25T02:05:04.337Z,47.14
2019-05-25T02:06:04.339Z,46.84
2019-05-25T02:07:04.310Z,47.24
2019-05-25T02:08:04.304Z,47.04
2019-05-25T02:09:04.290Z,47.14
2019-05-25T02:10:04.288Z,47.04
2019-05-25T02:11:04.291Z,47.14
2019-05-25T02:12:04.262Z,47.14
2019-05-25T02:13:04.256Z,46.94
2019-05-25T02:14:04.244Z,46.84
2019-05-25T02:15:05.133Z,46.94
2019-05-25T02:16:04.241Z,47.54
2019-05-25T02:17:04.202Z,47.64
2019-05-25T02:18:04.199Z,47.24
2019-05-25T02:19:04.185Z,47.54
2019-05-25T02:20:04.176Z,46.94
2019-05-25T02:21:04.173Z,46.94
2019-05-25T02:22:04.158Z,47.24
2019-05-25T02:23:04.144Z,47.14
2019-05-25T02:24:04.131Z,47.14
2019-05-25T02:25:16.964Z,47.34
2019-05-25T02:26:05.126Z,47.24
2019-05-25T02:27:04.097Z,47.56
2019-05-25T02:28:04.093Z,47.34
2019-05-25T02:29:04.081Z,46.96
2019-05-25T02:30:04.155Z,47.16
2019-05-25T02:31:04.087Z,47.26
2019-05-25T02:32:04.047Z,46.94
2019-05-25T02:33:04.045Z,47.26
2019-05-25T02:34:04.027Z,46.94
2019-05-25T02:35:04.020Z,46.96
2019-05-25T02:36:04.044Z,47.14
2019-05-25T02:37:03.999Z,47.34
2019-05-25T02:38:03.986Z,46.86
2019-05-25T02:39:03.973Z,46.96
2019-05-25T02:40:04.644Z,47.16
2019-05-25T02:41:03.980Z,46.96
2019-05-25T02:42:03.941Z,47.16
2019-05-25T02:43:03.929Z,47.06
2019-05-25T02:44:03.922Z,47.06
2019-05-25T02:45:03.909Z,47.26
2019-05-25T02:46:03.932Z,47.26
2019-05-25T02:47:03.893Z,47.16
2019-05-25T02:48:03.877Z,46.96
2019-05-25T02:49:03.871Z,47.36
2019-05-25T02:50:03.859Z,47.24
2019-05-25T02:51:03.862Z,47.14
2019-05-25T02:52:03.843Z,47.46
2019-05-25T02:53:03.827Z,47.26
2019-05-25T02:54:03.813Z,47.26
2019-05-25T02:55:03.820Z,47.36
2019-05-25T02:56:03.821Z,47.56
2019-05-25T02:57:03.790Z,47.56
2019-05-25T02:58:03.791Z,47.66
2019-05-25T02:59:03.762Z,47.46
2019-05-25T03:00:03.761Z,47.66
2019-05-25T03:01:03.759Z,47.96
2019-05-25T03:02:03.735Z,47.66
2019-05-25T03:03:03.728Z,47.96
2019-05-25T03:04:03.713Z,47.56
2019-05-25T03:05:03.716Z,47.76
2019-05-25T03:06:04.161Z,47.56
2019-05-25T03:07:03.674Z,47.56
2019-05-25T03:08:03.675Z,47.56
2019-05-25T03:09:03.750Z,47.46
2019-05-25T03:10:03.712Z,47.66
2019-05-25T03:11:03.656Z,47.56
2019-05-25T03:12:03.628Z,47.56
2019-05-25T03:13:03.616Z,47.76
2019-05-25T03:14:03.608Z,47.26
2019-05-25T03:15:04.046Z,47.66
2019-05-25T03:16:03.656Z,47.66
2019-05-25T03:17:03.592Z,47.26
2019-05-25T03:18:03.825Z,47.16
2019-05-25T03:19:03.552Z,47.36
2019-05-25T03:20:03.537Z,47.26
2019-05-25T03:21:03.560Z,47.46
2019-05-25T03:22:03.519Z,47.46
2019-05-25T03:23:03.512Z,47.76
2019-05-25T03:24:03.497Z,47.56
2019-05-25T03:25:03.486Z,47.49
2019-05-25T03:26:03.475Z,47.58
2019-05-25T03:27:03.567Z,47.36
2019-05-25T03:28:03.453Z,47.16
2019-05-25T03:29:03.448Z,47.16
2019-05-25T03:30:03.433Z,47.19
2019-05-25T03:31:03.478Z,47.49
2019-05-25T03:32:03.432Z,47.28
2019-05-25T03:33:03.415Z,47.28
2019-05-25T03:34:03.395Z,47.28
2019-05-25T03:35:03.379Z,47.28
2019-05-25T03:36:03.374Z,46.96
2019-05-25T03:37:03.418Z,47.19
2019-05-25T03:38:03.474Z,47.16
2019-05-25T03:39:03.339Z,47.08
2019-05-25T03:40:03.328Z,47.19
2019-05-25T03:41:03.312Z,48.16
2019-05-25T03:42:03.326Z,48.28
2019-05-25T03:43:03.306Z,48.08
2019-05-25T03:44:03.282Z,48.08
2019-05-25T03:45:03.282Z,48.19
2019-05-25T03:46:03.267Z,48.08
2019-05-25T03:47:03.274Z,48.28
2019-05-25T03:48:03.245Z,48.28
2019-05-25T03:49:03.243Z,48.38
2019-05-25T03:50:03.241Z,48.38
2019-05-25T03:51:03.208Z,48.38
2019-05-25T03:52:03.214Z,48.38
2019-05-25T03:53:03.188Z,48.08
2019-05-25T03:54:03.185Z,48.28
2019-05-25T03:55:03.167Z,48.08
2019-05-25T03:56:06.178Z,47.28
2019-05-25T03:57:03.160Z,48.08
2019-05-25T03:58:03.134Z,48.38
2019-05-25T03:59:03.123Z,47.99
2019-05-25T04:00:03.112Z,47.99
2019-05-25T04:01:03.102Z,48.19
2019-05-25T04:02:03.104Z,48.08
2019-05-25T04:03:03.093Z,48.28
2019-05-25T04:04:03.065Z,47.99
2019-05-25T04:05:03.058Z,48.19
2019-05-25T04:06:03.057Z,48.38
2019-05-25T04:07:03.058Z,48.69
2019-05-25T04:08:03.021Z,48.38
2019-05-25T04:09:03.008Z,48.08
2019-05-25T04:10:03.012Z,47.99
2019-05-25T04:11:02.992Z,47.99
2019-05-25T04:12:02.989Z,48.08
2019-05-25T04:13:02.964Z,48.38
2019-05-25T04:14:02.965Z,47.99
2019-05-25T04:15:02.951Z,48.19
2019-05-25T04:16:02.936Z,47.99
2019-05-25T04:17:02.953Z,48.19
2019-05-25T04:18:02.952Z,48.28
2019-05-25T04:19:02.904Z,48.38
2019-05-25T04:20:02.901Z,47.99
2019-05-25T04:21:02.885Z,47.88
2019-05-25T04:22:02.888Z,48.38
2019-05-25T04:23:02.866Z,48.19
2019-05-25T04:24:02.849Z,48.19
2019-05-25T04:25:02.838Z,48.08
2019-05-25T04:26:02.839Z,48.08
2019-05-25T04:27:02.832Z,48.28
2019-05-25T04:28:02.813Z,47.99
2019-05-25T04:29:02.811Z,48.38
2019-05-25T04:30:02.789Z,47.99
2019-05-25T04:31:02.785Z,48.08
2019-05-25T04:32:02.894Z,48.38
2019-05-25T04:33:02.764Z,48.38
2019-05-25T04:34:02.749Z,48.79
2019-05-25T04:35:02.742Z,48.79
2019-05-25T04:36:02.727Z,48.81
2019-05-25T04:37:02.755Z,48.69
2019-05-25T04:38:03.215Z,48.91
2019-05-25T04:39:02.723Z,48.79
2019-05-25T04:40:02.688Z,48.79
2019-05-25T04:41:02.680Z,48.31
2019-05-25T04:42:02.686Z,48.69
2019-05-25T04:43:02.664Z,48.49
2019-05-25T04:44:02.650Z,48.91
2019-05-25T04:45:02.637Z,48.38
2019-05-25T04:46:02.631Z,48.41
2019-05-25T04:47:02.632Z,48.81
2019-05-25T04:48:02.601Z,48.61
2019-05-25T04:49:02.634Z,48.49
2019-05-25T04:50:02.586Z,48.51
2019-05-25T04:51:02.570Z,48.99
2019-05-25T04:52:02.593Z,48.51
2019-05-25T04:53:02.559Z,48.51
2019-05-25T04:54:02.549Z,48.79
2019-05-25T04:55:02.528Z,49.01
2019-05-25T04:56:02.518Z,49.11
2019-05-25T04:57:02.747Z,48.51
2019-05-25T04:58:02.498Z,49.01
2019-05-25T04:59:02.490Z,49.01
2019-05-25T05:00:02.476Z,49.21
2019-05-25T05:01:02.465Z,49.31
2019-05-25T05:02:02.467Z,49.21
2019-05-25T05:03:02.454Z,48.81
2019-05-25T05:04:02.582Z,48.81
2019-05-25T05:05:02.469Z,48.51
2019-05-25T05:06:02.412Z,49.01
2019-05-25T05:07:02.419Z,49.11
2019-05-25T05:08:02.395Z,48.51
2019-05-25T05:09:02.403Z,49.11
2019-05-25T05:10:03.403Z,49.11
2019-05-25T05:11:02.423Z,48.51
2019-05-25T05:12:02.377Z,48.41
2019-05-25T05:13:02.340Z,49.01
2019-05-25T05:14:02.333Z,48.81
2019-05-25T05:15:02.319Z,48.81
2019-05-25T05:16:02.305Z,49.01
2019-05-25T05:17:02.310Z,48.51
2019-05-25T05:18:02.289Z,49.01
2019-05-25T05:19:02.288Z,48.81
2019-05-25T05:20:02.264Z,49.21
2019-05-25T05:21:02.267Z,49.21
2019-05-25T05:22:05.565Z,48.71
2019-05-25T05:23:02.253Z,49.11
2019-05-25T05:24:02.223Z,49.11
2019-05-25T05:25:02.221Z,49.11
2019-05-25T05:26:02.209Z,49.01
2019-05-25T05:27:02.211Z,49.01
2019-05-25T05:28:02.185Z,48.81
2019-05-25T05:29:02.196Z,48.51
2019-05-25T05:30:02.165Z,49.21
2019-05-25T05:31:02.150Z,48.81
2019-05-25T05:32:02.251Z,48.81
2019-05-25T05:33:02.143Z,49.01
2019-05-25T05:34:02.114Z,49.01
2019-05-25T05:35:02.116Z,48.81
2019-05-25T05:36:02.098Z,49.01
2019-05-25T05:37:02.147Z,48.49
2019-05-25T05:38:02.080Z,48.51
2019-05-25T05:39:02.072Z,48.71
2019-05-25T05:40:02.134Z,49.01
2019-05-25T05:41:02.054Z,49.21
2019-05-25T05:42:02.075Z,49.21
2019-05-25T05:43:02.031Z,49.08
2019-05-25T05:44:02.020Z,49.01
2019-05-25T05:45:02.101Z,49.81
2019-05-25T05:46:02.041Z,50.01
2019-05-25T05:47:01.983Z,49.11
2019-05-25T05:48:01.990Z,50.09
2019-05-25T05:49:01.997Z,49.29
2019-05-25T05:50:01.970Z,50.49
2019-05-25T05:51:01.942Z,50.79
2019-05-25T05:52:01.937Z,50.49
2019-05-25T05:53:01.975Z,50.39
2019-05-25T05:54:01.919Z,50.29
2019-05-25T05:55:01.982Z,50.79
2019-05-25T05:56:02.736Z,50.29
2019-05-25T05:57:11.957Z,50.79
2019-05-25T05:58:02.889Z,50.39
2019-05-25T05:59:01.868Z,49.49
2019-05-25T06:00:01.850Z,50.19
2019-05-25T06:01:01.836Z,49.39
2019-05-25T06:02:01.826Z,49.29
2019-05-25T06:03:01.841Z,49.46
2019-05-25T06:04:01.937Z,50.19
2019-05-25T06:05:02.615Z,49.87
2019-05-25T06:06:01.786Z,49.16
2019-05-25T06:07:01.772Z,49.26
2019-05-25T06:08:01.783Z,49.26
2019-05-25T06:09:01.753Z,49.16
2019-05-25T06:10:01.739Z,49.46
2019-05-25T06:11:01.734Z,49.26
2019-05-25T06:12:01.723Z,50.37
2019-05-25T06:13:01.729Z,50.07
2019-05-25T06:14:01.694Z,50.76
2019-05-25T06:15:01.685Z,50.67
2019-05-25T06:16:01.672Z,50.84
2019-05-25T06:17:01.662Z,50.74
2019-05-25T06:18:01.663Z,50.74
2019-05-25T06:19:01.650Z,51.04
2019-05-25T06:20:01.647Z,51.14
2019-05-25T06:21:01.624Z,51.25
2019-05-25T06:22:01.619Z,51.54
2019-05-25T06:23:01.609Z,51.14
2019-05-25T06:24:01.583Z,50.54
2019-05-25T06:25:01.590Z,50.54
2019-05-25T06:26:01.584Z,50.34
2019-05-25T06:27:01.554Z,50.74
2019-05-25T06:28:01.606Z,50.24
2019-05-25T06:29:01.528Z,50.34
2019-05-25T06:30:01.550Z,50.44
2019-05-25T06:31:01.506Z,50.04
2019-05-25T06:32:01.497Z,50.62
2019-05-25T06:33:01.504Z,49.32
2019-05-25T06:34:01.480Z,50.42
2019-05-25T06:35:02.269Z,50.32
2019-05-25T06:36:01.462Z,49.32
2019-05-25T06:37:01.544Z,48.61
2019-05-25T06:38:01.504Z,46.94
2019-05-25T06:39:01.421Z,47.22
2019-05-25T06:40:01.438Z,47.24
2019-05-25T06:41:01.396Z,46.74
2019-05-25T06:42:01.400Z,47.44
2019-05-25T06:43:01.461Z,47.74
2019-05-25T06:44:01.402Z,47.84
2019-05-25T06:45:01.361Z,48.34
2019-05-25T06:46:01.362Z,48.64
2019-05-25T06:47:01.344Z,48.64
2019-05-25T06:48:01.337Z,48.34
2019-05-25T06:49:01.346Z,48.94
2019-05-25T06:50:01.326Z,48.64
2019-05-25T06:51:01.295Z,49.04
2019-05-25T06:52:01.278Z,49.04
2019-05-25T06:53:01.281Z,48.34
2019-05-25T06:54:01.280Z,48.74
2019-05-25T06:55:01.283Z,48.44
2019-05-25T06:56:01.243Z,48.44
2019-05-25T06:57:01.231Z,48.64
2019-05-25T06:58:01.267Z,48.61
2019-05-25T06:59:01.211Z,48.82
2019-05-25T07:00:01.247Z,49.22
2019-05-25T07:01:01.189Z,48.92
2019-05-25T07:02:01.183Z,49.91
2019-05-25T07:03:01.170Z,49.82
2019-05-25T07:04:01.142Z,48.92
2019-05-25T07:05:01.134Z,49.69
2019-05-25T07:06:01.125Z,49.40
2019-05-25T07:07:01.111Z,49.79
2019-05-25T07:08:01.166Z,48.92
2019-05-25T07:09:01.136Z,49.19
2019-05-25T07:10:01.103Z,48.69
2019-05-25T07:11:01.073Z,48.60
2019-05-25T07:12:01.052Z,48.99
2019-05-25T07:13:01.721Z,48.69
2019-05-25T07:14:01.038Z,48.69
2019-05-25T07:15:01.028Z,48.39
2019-05-25T07:16:01.015Z,48.79
2019-05-25T07:17:01.012Z,47.99
2019-05-25T07:18:01.014Z,48.27
2019-05-25T07:19:01.006Z,47.39
2019-05-25T07:20:00.968Z,47.57
2019-05-25T07:21:00.965Z,47.37
2019-05-25T07:22:00.971Z,47.17
2019-05-25T07:23:00.949Z,47.17
2019-05-25T07:24:00.933Z,46.57
2019-05-25T07:25:00.930Z,47.57
2019-05-25T07:26:00.916Z,46.87
2019-05-25T07:27:00.904Z,46.77
2019-05-25T07:28:00.915Z,45.97
2019-05-25T07:29:00.875Z,46.07
2019-05-25T07:30:00.873Z,45.87
2019-05-25T07:31:00.862Z,46.07
2019-05-25T07:32:00.859Z,46.07
2019-05-25T07:33:00.843Z,45.87
2019-05-25T07:34:00.829Z,46.30
2019-05-25T07:35:00.809Z,45.57
2019-05-25T07:36:00.896Z,46.00
2019-05-25T07:37:00.791Z,45.07
2019-05-25T07:38:00.784Z,45.29
2019-05-25T07:39:00.790Z,45.29
2019-05-25T07:40:00.766Z,45.39
2019-05-25T07:41:00.746Z,46.30
2019-05-25T07:42:00.830Z,46.09
2019-05-25T07:43:00.729Z,45.79
2019-05-25T07:44:00.729Z,45.89
2019-05-25T07:45:00.706Z,45.89
2019-05-25T07:46:00.689Z,45.69
2019-05-25T07:47:00.680Z,46.09
2019-05-25T07:48:00.682Z,46.09
2019-05-25T07:49:00.691Z,45.69
2019-05-25T07:50:00.649Z,46.01
2019-05-25T07:51:00.635Z,45.79
2019-05-25T07:52:02.595Z,46.01
2019-05-25T07:53:00.612Z,45.89
2019-05-25T07:54:00.618Z,45.79
2019-05-25T07:55:00.593Z,46.01
2019-05-25T07:56:00.581Z,45.92
2019-05-25T07:57:00.568Z,45.92
2019-05-25T07:58:15.762Z,46.01
2019-05-25T07:59:01.566Z,45.81
2019-05-25T08:00:00.536Z,46.12
2019-05-25T08:01:00.530Z,46.22
2019-05-25T08:02:00.514Z,46.80
2019-05-25T08:03:00.505Z,46.72
2019-05-25T08:04:00.527Z,46.62
2019-05-25T08:05:00.538Z,47.02
2019-05-25T08:06:00.513Z,46.92
2019-05-25T08:07:00.466Z,47.09
2019-05-25T08:08:00.483Z,46.59
2019-05-25T08:09:00.527Z,46.89
2019-05-25T08:10:00.452Z,46.50
2019-05-25T08:11:00.415Z,46.09
2019-05-25T08:12:00.405Z,46.00
2019-05-25T08:13:00.423Z,45.79
2019-05-25T08:14:00.402Z,45.69
2019-05-25T08:15:00.374Z,45.89
2019-05-25T08:16:00.400Z,45.69
2019-05-25T08:17:00.387Z,45.29
2019-05-25T08:18:00.356Z,45.50
2019-05-25T08:19:00.373Z,45.69
2019-05-25T08:20:00.320Z,45.72
2019-05-25T08:21:00.320Z,46.09
2019-05-25T08:22:00.305Z,46.12
2019-05-25T08:23:00.285Z,46.12
2019-05-25T08:24:00.349Z,46.50
2019-05-25T08:25:00.306Z,46.92
2019-05-25T08:26:00.335Z,46.72
2019-05-25T08:27:00.257Z,46.72
2019-05-25T08:28:00.235Z,46.92
2019-05-25T08:29:00.239Z,46.81
2019-05-25T08:30:00.236Z,46.62
2019-05-25T08:31:01.395Z,47.31
2019-05-25T08:32:00.209Z,46.99
2019-05-25T08:33:00.175Z,46.62
2019-05-25T08:34:00.219Z,45.59
2019-05-25T08:35:00.155Z,45.51
2019-05-25T08:36:00.153Z,46.12
2019-05-25T08:37:00.170Z,45.92
2019-05-25T08:38:00.161Z,46.01
2019-05-25T08:39:00.165Z,45.92
2019-05-25T08:40:00.096Z,45.81
2019-05-25T08:41:00.106Z,46.12
2019-05-25T08:42:00.112Z,46.01
2019-05-25T08:43:00.060Z,46.01
2019-05-25T08:44:00.125Z,46.01
2019-05-25T08:45:00.047Z,45.81
2019-05-25T08:46:00.036Z,45.92
2019-05-25T08:47:00.026Z,45.81
2019-05-25T08:48:00.009Z,45.92
2019-05-25T08:49:00.022Z,45.92
2019-05-25T08:49:59.987Z,45.72
2019-05-25T08:50:59.996Z,45.92
2019-05-25T08:51:59.967Z,45.92
2019-05-25T08:52:59.957Z,46.01
2019-05-25T08:53:59.966Z,45.72
2019-05-25T08:54:59.936Z,45.92
2019-05-25T08:55:59.945Z,45.89
2019-05-25T08:56:59.914Z,46.09
2019-05-25T08:57:59.904Z,45.89
2019-05-25T08:58:59.908Z,45.92
2019-05-25T08:59:59.878Z,45.81
2019-05-25T09:00:59.873Z,45.72
2019-05-25T09:01:59.856Z,45.92
2019-05-25T09:02:59.844Z,46.42
2019-05-25T09:03:59.862Z,46.62
2019-05-25T09:04:59.826Z,46.59
2019-05-25T09:05:59.819Z,46.42
2019-05-25T09:06:59.824Z,46.72
2019-05-25T09:07:59.806Z,46.72
2019-05-25T09:08:59.814Z,46.51
2019-05-25T09:09:59.770Z,46.81
2019-05-25T09:10:59.760Z,46.72
2019-05-25T09:11:59.755Z,46.72
2019-05-25T09:12:59.739Z,46.62
2019-05-25T09:13:59.758Z,46.92
2019-05-25T09:14:59.723Z,46.92
2019-05-25T09:15:59.709Z,46.72
2019-05-25T09:16:59.706Z,46.92
2019-05-25T09:17:59.720Z,46.62
2019-05-25T09:18:59.715Z,46.84
2019-05-25T09:19:59.667Z,46.92
2019-05-25T09:20:59.672Z,46.62
2019-05-25T09:22:03.132Z,46.92
2019-05-25T09:22:59.645Z,46.72
2019-05-25T09:23:59.648Z,46.62
2019-05-25T09:24:59.618Z,46.42
2019-05-25T09:25:59.605Z,46.92
2019-05-25T09:26:59.635Z,46.92
2019-05-25T09:27:59.588Z,47.02
2019-05-25T09:29:04.440Z,46.72
2019-05-25T09:30:00.564Z,47.02
2019-05-25T09:30:59.555Z,46.72
2019-05-25T09:31:59.547Z,46.72
2019-05-25T09:32:59.547Z,46.92
2019-05-25T09:33:59.556Z,46.80
2019-05-25T09:34:59.510Z,46.81
2019-05-25T09:35:59.507Z,46.72
2019-05-25T09:36:59.485Z,46.62
2019-05-25T09:37:59.480Z,46.81
2019-05-25T09:38:59.494Z,46.92
2019-05-25T09:39:59.468Z,46.92
2019-05-25T09:40:59.447Z,47.02
2019-05-25T09:41:59.439Z,46.42
2019-05-25T09:42:59.436Z,46.22
2019-05-25T09:43:59.415Z,46.62
2019-05-25T09:44:59.415Z,46.42
2019-05-25T09:45:59.397Z,46.62
2019-05-25T09:46:59.380Z,46.42
2019-05-25T09:47:59.370Z,46.62
2019-05-25T09:48:59.366Z,46.72
2019-05-25T09:49:59.371Z,46.62
2019-05-25T09:50:59.338Z,46.81
2019-05-25T09:51:59.323Z,46.81
2019-05-25T09:52:59.319Z,46.72
2019-05-25T09:53:59.308Z,46.92
2019-05-25T09:54:59.315Z,46.42
2019-05-25T09:55:59.320Z,46.62
2019-05-25T09:56:59.271Z,46.92
2019-05-25T09:57:59.272Z,46.72
2019-05-25T09:58:59.252Z,46.62
2019-05-25T09:59:59.256Z,46.62
2019-05-25T10:00:59.231Z,46.92
2019-05-25T10:01:59.226Z,46.62
2019-05-25T10:02:59.210Z,46.42
2019-05-25T10:03:59.203Z,46.81
2019-05-25T10:04:59.201Z,46.72
2019-05-25T10:05:59.179Z,46.62
2019-05-25T10:06:59.168Z,46.99
2019-05-25T10:07:59.154Z,46.92
2019-05-25T10:08:59.148Z,47.02
2019-05-25T10:09:59.145Z,46.81
2019-05-25T10:10:59.124Z,46.62
2019-05-25T10:11:59.110Z,46.72
2019-05-25T10:12:59.098Z,46.72
2019-05-25T10:13:59.085Z,46.92
2019-05-25T10:14:59.095Z,46.62
2019-05-25T10:15:59.064Z,46.62
2019-05-25T10:16:59.104Z,46.92
2019-05-25T10:17:59.095Z,46.42
2019-05-25T10:18:59.030Z,46.89
2019-05-25T10:19:59.060Z,46.62
2019-05-25T10:20:59.012Z,46.92
2019-05-25T10:21:59.681Z,46.51
2019-05-25T10:22:58.995Z,47.22
2019-05-25T10:23:58.984Z,47.11
2019-05-25T10:24:59.013Z,46.42
2019-05-25T10:25:58.984Z,47.11
2019-05-25T10:26:58.944Z,47.31
2019-05-25T10:27:58.944Z,46.92
2019-05-25T10:28:58.928Z,47.22
2019-05-25T10:29:58.945Z,47.22
2019-05-25T10:30:58.903Z,47.22
2019-05-25T10:31:58.898Z,47.11
2019-05-25T10:32:58.880Z,46.62
2019-05-25T10:33:58.866Z,47.31
2019-05-25T10:34:58.882Z,47.31
2019-05-25T10:35:59.774Z,47.22
2019-05-25T10:36:58.835Z,47.11
2019-05-25T10:37:58.834Z,46.31
2019-05-25T10:38:58.812Z,47.22
2019-05-25T10:39:58.814Z,46.31
2019-05-25T10:40:58.795Z,47.11
2019-05-25T10:41:58.785Z,46.92
2019-05-25T10:42:58.770Z,46.62
2019-05-25T10:43:58.773Z,46.62
2019-05-25T10:44:58.775Z,46.62
2019-05-25T10:45:58.737Z,46.59
2019-05-25T10:46:58.733Z,46.42
2019-05-25T10:47:58.715Z,47.02
2019-05-25T10:48:58.703Z,46.62
2019-05-25T10:49:58.707Z,46.62
2019-05-25T10:50:58.718Z,46.62
2019-05-25T10:51:59.318Z,46.92
2019-05-25T10:52:58.673Z,47.02
2019-05-25T10:53:58.653Z,46.72
2019-05-25T10:54:58.657Z,46.72
2019-05-25T10:55:58.624Z,47.02
2019-05-25T10:56:58.613Z,46.89
2019-05-25T10:57:58.603Z,46.81
2019-05-25T10:58:58.595Z,46.62
2019-05-25T10:59:58.601Z,47.09
2019-05-25T11:00:59.326Z,47.30
2019-05-25T11:01:58.558Z,46.99
2019-05-25T11:02:58.552Z,47.19
2019-05-25T11:03:58.542Z,47.19
2019-05-25T11:04:58.552Z,46.80
2019-05-25T11:05:58.521Z,46.59
2019-05-25T11:06:58.513Z,47.09
2019-05-25T11:07:58.505Z,46.59
2019-05-25T11:08:58.485Z,47.79
2019-05-25T11:09:58.533Z,46.59
2019-05-25T11:10:58.475Z,46.89
2019-05-25T11:11:58.461Z,46.89
2019-05-25T11:12:58.443Z,46.89
2019-05-25T11:13:58.436Z,46.89
2019-05-25T11:14:58.440Z,46.89
2019-05-25T11:15:58.409Z,46.99
2019-05-25T11:16:58.396Z,46.69
2019-05-25T11:17:58.432Z,46.59
2019-05-25T11:18:58.382Z,46.89
2019-05-25T11:19:58.399Z,46.99
2019-05-25T11:20:58.356Z,46.99
2019-05-25T11:21:58.350Z,46.89
2019-05-25T11:22:58.341Z,46.89
2019-05-25T11:23:58.326Z,46.89
2019-05-25T11:24:58.316Z,46.89
2019-05-25T11:25:58.324Z,47.09
2019-05-25T11:26:59.741Z,46.89
2019-05-25T11:27:58.294Z,46.99
2019-05-25T11:28:58.272Z,46.99
2019-05-25T11:30:08.439Z,46.99
2019-05-25T11:30:59.267Z,46.80
2019-05-25T11:32:03.376Z,46.62
2019-05-25T11:32:59.227Z,46.59
2019-05-25T11:33:58.241Z,47.79
2019-05-25T11:34:58.206Z,46.89
2019-05-25T11:35:58.234Z,47.31
2019-05-25T11:36:58.184Z,47.09
2019-05-25T11:37:58.231Z,46.59
2019-05-25T11:38:58.167Z,46.69
2019-05-25T11:39:58.186Z,46.89
2019-05-25T11:40:58.159Z,46.99
2019-05-25T11:41:58.138Z,46.59
2019-05-25T11:42:58.136Z,47.79
2019-05-25T11:43:58.143Z,46.59
2019-05-25T11:44:58.098Z,46.59
2019-05-25T11:45:58.126Z,46.80
2019-05-25T11:46:58.081Z,46.99
2019-05-25T11:47:58.067Z,46.80
2019-05-25T11:48:58.055Z,46.99
2019-05-25T11:49:58.047Z,46.59
2019-05-25T11:50:58.054Z,46.89
2019-05-25T11:51:58.030Z,46.80
2019-05-25T11:52:58.020Z,46.80
2019-05-25T11:53:57.999Z,46.99
2019-05-25T11:54:57.998Z,46.89
2019-05-25T11:55:57.994Z,46.59
2019-05-25T11:56:57.983Z,46.59
2019-05-25T11:57:57.956Z,46.89
2019-05-25T11:58:57.957Z,46.99
2019-05-25T11:59:57.940Z,46.89
2019-05-25T12:00:57.937Z,46.89
2019-05-25T12:01:57.920Z,46.69
2019-05-25T12:02:57.923Z,46.59
2019-05-25T12:03:57.922Z,46.69
2019-05-25T12:04:57.890Z,46.59
2019-05-25T12:05:57.897Z,46.59
2019-05-25T12:06:57.866Z,47.02
2019-05-25T12:07:57.853Z,46.89
2019-05-25T12:08:57.848Z,46.69
2019-05-25T12:09:57.850Z,46.59
2019-05-25T12:10:57.840Z,46.80
2019-05-25T12:11:57.818Z,46.69
2019-05-25T12:12:57.802Z,46.59
2019-05-25T12:13:57.797Z,46.99
2019-05-25T12:14:57.775Z,46.59
2019-05-25T12:15:57.777Z,46.59
2019-05-25T12:16:57.759Z,46.89
2019-05-25T12:17:57.750Z,46.59
2019-05-25T12:18:57.729Z,46.80
2019-05-25T12:19:57.720Z,46.69
2019-05-25T12:20:57.724Z,46.89
2019-05-25T12:21:57.709Z,46.69
2019-05-25T12:22:58.344Z,46.59
2019-05-25T12:23:57.678Z,46.69
2019-05-25T12:24:57.669Z,46.80
2019-05-25T12:25:57.688Z,46.80
2019-05-25T12:26:57.647Z,46.89
2019-05-25T12:27:57.648Z,46.80
2019-05-25T12:28:57.624Z,46.89
2019-05-25T12:29:57.621Z,46.59
2019-05-25T12:30:57.624Z,46.59
2019-05-25T12:32:04.189Z,46.69
2019-05-25T12:32:58.584Z,46.39
2019-05-25T12:33:57.574Z,46.69
2019-05-25T12:34:57.559Z,46.69
2019-05-25T12:35:57.561Z,46.59
2019-05-25T12:36:57.535Z,46.80
2019-05-25T12:37:57.522Z,46.99
2019-05-25T12:38:57.514Z,46.89
2019-05-25T12:39:57.503Z,46.99
2019-05-25T12:40:57.499Z,46.89
2019-05-25T12:41:57.494Z,46.89
2019-05-25T12:42:57.470Z,46.89
2019-05-25T12:43:57.454Z,46.69
2019-05-25T12:44:57.457Z,46.69
2019-05-25T12:45:57.471Z,46.59
2019-05-25T12:46:57.424Z,46.80
2019-05-25T12:47:57.431Z,46.50
2019-05-25T12:48:57.405Z,46.39
2019-05-25T12:49:57.408Z,46.59
2019-05-25T12:50:57.397Z,46.57
2019-05-25T12:51:57.370Z,46.89